Airfield :
LOGIN :

Register | Disclaimer

   EN    FR    IT 

 










Legend :    VFR   Marginal VFR   IFR   Intensive IFR   Very Intensive IFR
Visi :
Ceiling :
>= 8 km
>= 3000ft
5 to 8 km
1000 to 3000 ft
1500m to 5 km
500 to 1000 ft
800 to 1500m
200 to 500 ft
< 800m
< 200 ft
Symbols :   Thunderstorms  Fog  Heavy snow  Heavy precipitations  Wind > 20 kt
SIGMETs :     Misc.  Thunderstorms  Icing  Turbulence  Mountain Waves  Volcanic Ashes







- Airport Elevation : 209 ft
- IATA code : CLY
- Download approach charts


LFKC - Calvi

CURRENT METAR :
  • 250830Z AUTO 03004KT 340V080 9999 SCT009/// 19/15 Q1018 NOSIG

EXPIRED METARs :
  • 250800Z AUTO 03004KT 350V060 9999 SCT010 18/15 Q1018 NOSIG
  • 250730Z AUTO 03004KT 350V070 9999 FEW010 17/15 Q1018 NOSIG
  • 250700Z AUTO 00000KT 9999 BKN008 16/14 Q1018 BECMG NSC
  • 250630Z AUTO VRB02KT 9999 BKN009 15/14 Q1018 BECMG NSC
  • 250600Z AUTO 20003KT 9999 BKN009 13/11 Q1018 BECMG NSC

TAF TAF LFKC
Valid from the 25 at 09:00 until the 26 at 09:00 UTC


250800Z 2509/2609 01008KT CAVOK
TEMPO 2509/2512 SCT012
TEMPO 2600/2609 18005KT BKN008 TX23/2513Z TN12/2605Z
ATIS : +33 4 95 65 82 49
No reported NOTAMs for that airfield.



MET'MAP, your aeronautical weather chart ! - Copyright ORBIFLY December 2007 - Disclaimer

ORBIFLY MET'MAP TEAM :

Programming & Development : Alexandra Zaïnal
Concept & Development : Baudouin d'Aumeries
Co-Development & Prog : Marc-Olivier Méhu
Technical & hardware support : Manuel Goepfert

Contact : metmap@orbifly.com




SOURCES & CREDITS :

   NOAA